Time;durP1;ratioP1;P1;durP2;ratioP2;P2;SDS_P1;SDS_P2;PMS_P1;PMS_P2;Temp;Humidity;BMP_temperature;BMP_pressure;BME280_temperature;BME280_humidity;BME280_pressure;Samples;Min_cycle;Max_cycle;Signal;HPM_P1;HPM_P2
2024/01/24 00:01:37;;;;;;;15.80;4.00;;;;;;;1.66;97.49;100084.85;103824;1283;60533;-33
2024/01/24 00:04:03;;;;;;;9.90;4.10;;;;;;;1.63;97.84;100075.20;103886;1283;60571;-33
2024/01/24 00:06:29;;;;;;;17.10;4.10;;;;;;;1.62;98.31;100067.73;103939;1283;60488;-30
2024/01/24 00:08:54;;;;;;;13.80;4.40;;;;;;;1.60;98.43;100058.66;103804;1283;60559;-30
2024/01/24 00:11:20;;;;;;;18.00;5.10;;;;;;;1.60;98.46;100059.08;103934;1283;60528;-30
2024/01/24 00:13:46;;;;;;;22.10;4.60;;;;;;;1.59;98.54;100044.33;103867;1282;68336;-32
2024/01/24 00:16:12;;;;;;;20.30;4.70;;;;;;;1.60;98.33;100030.65;103715;1284;60535;-32
2024/01/24 00:18:37;;;;;;;13.90;4.50;;;;;;;1.63;98.08;100025.81;103827;1281;60512;-32
2024/01/24 00:21:03;;;;;;;16.60;4.60;;;;;;;1.64;97.87;100023.23;103924;1283;60584;-38
2024/01/24 00:23:29;;;;;;;18.20;4.90;;;;;;;1.63;97.61;100018.59;103911;1283;60508;-31
2024/01/24 00:25:55;;;;;;;14.60;4.10;;;;;;;1.61;97.41;100015.54;103917;1281;60574;-31
2024/01/24 00:28:21;;;;;;;20.20;5.20;;;;;;;1.55;97.55;100006.54;103828;1282;60571;-30
2024/01/24 00:30:46;;;;;;;20.90;5.50;;;;;;;1.57;97.57;100010.40;103984;1283;60503;-32
2024/01/24 00:33:12;;;;;;;11.10;4.60;;;;;;;1.54;97.45;100002.89;103941;1285;60469;-30
2024/01/24 00:35:38;;;;;;;19.60;4.50;;;;;;;1.55;97.27;100002.28;103861;1285;60638;-34
2024/01/24 00:38:03;;;;;;;19.40;5.10;;;;;;;1.51;97.29;100010.58;103850;1283;60568;-34
2024/01/24 00:40:29;;;;;;;22.80;4.80;;;;;;;1.47;97.39;100014.64;103686;1285;60632;-34
2024/01/24 00:42:55;;;;;;;19.30;4.90;;;;;;;1.44;97.44;100010.20;103911;1284;60487;-34
2024/01/24 00:45:20;;;;;;;15.00;4.90;;;;;;;1.41;97.50;100006.73;103887;1283;60571;-32
2024/01/24 00:47:46;;;;;;;16.00;4.70;;;;;;;1.40;97.77;100000.45;103845;1281;60584;-33
2024/01/24 00:50:12;;;;;;;19.00;5.00;;;;;;;1.44;97.64;99998.60;103968;1283;74114;-34
2024/01/24 00:52:37;;;;;;;18.20;5.20;;;;;;;1.47;97.51;99998.39;103890;1281;60523;-32
2024/01/24 00:55:04;;;;;;;21.10;5.30;;;;;;;1.42;97.42;100007.06;103982;1283;61062;-30
2024/01/24 00:57:29;;;;;;;23.60;5.40;;;;;;;1.45;97.43;99996.92;104012;1283;60591;-31
2024/01/24 00:59:55;;;;;;;22.50;5.90;;;;;;;1.42;97.24;99980.02;103803;1283;60583;-32
2024/01/24 01:02:21;;;;;;;18.60;4.70;;;;;;;1.40;97.23;99948.73;103892;1283;60463;-32
2024/01/24 01:04:46;;;;;;;17.50;4.80;;;;;;;-102.12;18.67;19985.64;100992;1283;1003227;-32
2024/01/24 01:07:12;;;;;;;18.80;4.70;;;;;;;-128.00;-1.00;-1.00;100253;1283;1004463;-31
2024/01/24 01:09:38;;;;;;;15.40;4.40;;;;;;;-128.00;-1.00;-1.00;100185;1283;1014856;-33
2024/01/24 01:12:04;;;;;;;15.10;4.80;;;;;;;-128.00;-1.00;-1.00;100280;1282;1004525;-35
2024/01/24 01:14:29;;;;;;;17.30;4.30;;;;;;;-128.00;-1.00;-1.00;100301;1282;1004984;-31
2024/01/24 01:16:55;;;;;;;17.40;4.80;;;;;;;-128.00;-1.00;-1.00;100278;1283;1056738;-32
2024/01/24 01:19:20;;;;;;;18.90;4.70;;;;;;;-128.00;-1.00;-1.00;100320;1283;1004386;-31
2024/01/24 01:21:46;;;;;;;19.40;5.30;;;;;;;-128.00;-1.00;-1.00;100224;1285;1045884;-31
2024/01/24 01:24:12;;;;;;;17.50;4.30;;;;;;;-128.00;-1.00;-1.00;100206;1283;1004244;-33
2024/01/24 01:26:37;;;;;;;17.50;4.70;;;;;;;-128.00;-1.00;-1.00;100249;1283;1056776;-31
2024/01/24 01:29:03;;;;;;;20.90;5.00;;;;;;;-128.00;-1.00;-1.00;100229;1283;1004009;-33
2024/01/24 01:31:29;;;;;;;18.00;4.70;;;;;;;-128.00;-1.00;-1.00;99519;1285;1045601;-33
2024/01/24 01:33:54;;;;;;;16.90;4.10;;;;;;;-128.00;-1.00;-1.00;100361;1283;1003292;-33
2024/01/24 01:36:20;;;;;;;22.90;4.70;;;;;;;-128.00;-1.00;-1.00;100466;1283;1003306;-33
2024/01/24 01:38:45;;;;;;;15.40;4.30;;;;;;;-128.00;-1.00;-1.00;100460;1285;1003706;-33
2024/01/24 01:41:11;;;;;;;18.50;5.10;;;;;;;-128.00;-1.00;-1.00;100388;1282;1002854;-31
2024/01/24 01:43:37;;;;;;;14.10;4.60;;;;;;;-128.00;-1.00;-1.00;100365;1282;1003413;-32
2024/01/24 01:46:05;;;;;;;21.40;4.50;;;;;;;-128.00;-1.00;-1.00;100495;1282;1003292;-34
2024/01/24 01:48:32;;;;;;;18.90;4.60;;;;;;;-128.00;-1.00;-1.00;100432;1281;1004212;-31
2024/01/24 01:50:57;;;;;;;19.50;4.80;;;;;;;-128.00;-1.00;-1.00;99688;1285;1003826;-31
2024/01/24 02:33:57;;;;;;;16.40;4.20;;;;;;;0.44;100.00;99645.02;103452;1286;612734;-30
2024/01/24 02:36:23;;;;;;;15.00;4.10;;;;;;;0.58;100.00;99631.95;103406;1288;94585;-32
2024/01/24 02:38:49;;;;;;;16.90;4.30;;;;;;;0.62;100.00;99629.86;103610;1287;59304;-30
2024/01/24 02:41:17;;;;;;;14.90;5.10;;;;;;;0.64;100.00;99619.61;103543;1287;59375;-30
2024/01/24 02:43:42;;;;;;;14.00;3.80;;;;;;;0.73;100.00;99614.89;103601;1282;72780;-29
2024/01/24 02:46:08;;;;;;;15.50;3.60;;;;;;;0.83;100.00;99620.91;103531;1282;59426;-30
2024/01/24 02:48:34;;;;;;;12.40;3.80;;;;;;;0.85;100.00;99614.02;103632;1282;59352;-32
2024/01/24 02:50:59;;;;;;;15.10;3.90;;;;;;;0.90;100.00;99598.98;103594;1287;59379;-33
2024/01/24 02:53:25;;;;;;;14.10;3.40;;;;;;;0.94;100.00;99589.09;103576;1286;59413;-32
2024/01/24 02:55:51;;;;;;;13.50;3.50;;;;;;;0.91;100.00;99585.15;102929;1286;1002924;-33
2024/01/24 02:58:16;;;;;;;18.20;4.80;;;;;;;0.99;100.00;99581.27;103637;1282;60435;-33
2024/01/24 03:00:42;;;;;;;13.50;3.80;;;;;;;1.02;100.00;99571.56;103608;1286;59765;-33
2024/01/24 03:03:08;;;;;;;14.60;2.90;;;;;;;1.03;100.00;99560.29;103675;1286;59679;-32
2024/01/24 03:05:34;;;;;;;15.50;4.00;;;;;;;1.01;100.00;99539.65;97863;1285;2002354;-32
2024/01/24 03:08:00;;;;;;;11.80;3.30;;;;;;;1.03;100.00;99522.41;102924;1282;1005100;-32
2024/01/24 03:10:26;;;;;;;11.30;3.40;;;;;;;1.05;100.00;99515.38;103677;1282;59705;-30
2024/01/24 03:12:53;;;;;;;11.90;3.60;;;;;;;1.10;100.00;99509.30;103317;1282;72863;-33
2024/01/24 03:15:18;;;;;;;12.30;3.80;;;;;;;1.11;100.00;99503.38;96451;1282;1014655;-28
2024/01/24 03:17:44;;;;;;;10.10;4.00;;;;;;;1.22;100.00;99500.46;103621;1286;59733;-34
2024/01/24 03:20:11;;;;;;;13.10;3.70;;;;;;;1.23;100.00;99506.05;103588;1286;59765;-30
2024/01/24 03:22:37;;;;;;;9.60;3.10;;;;;;;1.30;100.00;99511.06;103718;1287;59749;-30
2024/01/24 03:25:03;;;;;;;17.70;3.80;;;;;;;1.37;99.98;99491.52;103708;1286;59816;-29
2024/01/24 03:27:28;;;;;;;14.50;3.70;;;;;;;1.43;99.88;99477.27;103568;1288;59657;-32
2024/01/24 03:29:55;;;;;;;12.70;3.00;;;;;;;1.45;99.89;99471.45;103784;1302;59797;-30
2024/01/24 03:32:20;;;;;;;14.50;3.90;;;;;;;1.49;99.91;99461.55;103733;1286;59988;-32
2024/01/24 03:34:59;;;;;;;14.10;3.30;;;;;;;1.57;99.80;99460.27;103431;1289;59788;-31
2024/01/24 03:37:25;;;;;;;10.80;3.00;;;;;;;1.57;99.81;99444.41;103813;1282;71693;-32
2024/01/24 03:39:51;;;;;;;9.00;2.70;;;;;;;1.66;99.46;99430.75;103686;1287;59768;-33
2024/01/24 03:42:17;;;;;;;9.70;3.10;;;;;;;1.85;98.98;99433.59;103761;1295;59761;-32
2024/01/24 03:44:42;;;;;;;8.50;2.70;;;;;;;1.86;98.80;99425.70;103715;1287;59734;-32
2024/01/24 03:47:08;;;;;;;13.40;3.00;;;;;;;1.89;98.53;99427.45;103758;1298;59759;-31
2024/01/24 03:49:33;;;;;;;10.60;3.00;;;;;;;1.92;98.83;99425.20;103754;1298;60214;-30
2024/01/24 03:51:59;;;;;;;11.60;2.50;;;;;;;1.95;98.80;99429.02;103799;1287;59689;-32
2024/01/24 03:54:25;;;;;;;11.40;2.50;;;;;;;1.99;98.70;99434.23;102917;1288;1002339;-31
2024/01/24 03:56:51;;;;;;;;;;;;;;;2.08;98.45;99439.80;103817;1283;59788;-35
2024/01/24 03:59:16;;;;;;;8.50;2.30;;;;;;;2.10;98.68;99435.70;103770;1287;59805;-31
2024/01/24 04:01:42;;;;;;;16.40;3.00;;;;;;;2.15;98.78;99437.77;103826;1287;59685;-30
2024/01/24 04:04:08;;;;;;;13.20;3.30;;;;;;;2.20;99.02;99438.19;103857;1298;59762;-31
2024/01/24 04:06:35;;;;;;;12.90;3.00;;;;;;;2.18;99.52;99434.84;103808;1288;59950;-32
2024/01/24 04:09:00;;;;;;;9.40;2.60;;;;;;;2.18;99.84;99430.26;103749;1288;59799;-30
2024/01/24 04:11:27;;;;;;;12.90;3.40;;;;;;;2.17;99.98;99418.44;103726;1286;59688;-32
2024/01/24 04:13:53;;;;;;;12.70;3.10;;;;;;;2.20;100.00;99401.92;103778;1294;59788;-32
2024/01/24 04:16:19;;;;;;;;;;;;;;;2.16;100.00;99404.45;103514;1287;59745;-32
2024/01/24 04:18:44;;;;;;;12.90;2.80;;;;;;;2.13;100.00;99401.55;103813;1304;59761;-30
2024/01/24 04:21:10;;;;;;;11.30;2.80;;;;;;;2.14;100.00;99398.63;103828;1287;61937;-36
2024/01/24 04:23:36;;;;;;;19.10;3.00;;;;;;;2.11;100.00;99388.98;103786;1286;59820;-31
2024/01/24 04:26:04;;;;;;;15.20;2.80;;;;;;;2.12;100.00;99382.73;103832;1291;60319;-31
2024/01/24 04:28:33;;;;;;;16.50;3.00;;;;;;;2.08;100.00;99371.11;103804;1285;59642;-34
2024/01/24 04:30:59;;;;;;;19.30;3.80;;;;;;;2.05;100.00;99368.16;103772;1284;70624;-34
2024/01/24 04:33:25;;;;;;;11.60;2.80;;;;;;;2.03;100.00;99366.22;103806;1286;59654;-32
2024/01/24 04:35:50;;;;;;;12.40;2.50;;;;;;;1.99;100.00;99359.00;103817;1298;59812;-33
2024/01/24 04:38:16;;;;;;;11.60;3.00;;;;;;;1.99;100.00;99350.73;103472;1290;59858;-32
2024/01/24 04:40:42;;;;;;;11.10;2.90;;;;;;;2.03;100.00;99346.46;103782;1295;59753;-34
2024/01/24 04:43:08;;;;;;;11.60;2.30;;;;;;;2.04;100.00;99339.66;103872;1286;59761;-32
2024/01/24 04:45:34;;;;;;;9.20;2.70;;;;;;;2.06;100.00;99333.36;103833;1287;59748;-31
2024/01/24 04:48:00;;;;;;;11.10;2.90;;;;;;;2.07;100.00;99322.45;103063;1282;1003089;-33
2024/01/24 04:50:25;;;;;;;9.70;2.80;;;;;;;1.99;100.00;99320.52;103709;1286;59771;-32
2024/01/24 04:52:51;;;;;;;7.00;2.10;;;;;;;1.95;100.00;99314.80;101606;1288;1002937;-32
2024/01/24 04:55:17;;;;;;;9.60;2.40;;;;;;;1.90;100.00;99306.21;103727;1297;59932;-32
2024/01/24 04:57:42;;;;;;;9.80;2.70;;;;;;;1.96;100.00;99294.41;103004;1285;1001882;-33
2024/01/24 05:00:11;;;;;;;12.70;3.20;;;;;;;1.95;100.00;99288.30;103792;1298;60476;-36
2024/01/24 05:02:37;;;;;;;11.60;3.00;;;;;;;1.91;100.00;99282.27;103884;1287;71539;-32
2024/01/24 05:05:06;;;;;;;11.00;3.00;;;;;;;1.93;100.00;99278.20;103786;1286;60079;-31
2024/01/24 05:07:34;;;;;;;10.60;3.10;;;;;;;1.97;100.00;99262.32;103837;1286;60572;-32
2024/01/24 05:10:04;;;;;;;9.30;2.60;;;;;;;1.94;100.00;99255.85;103791;1282;60002;-32
2024/01/24 05:12:30;;;;;;;8.90;2.70;;;;;;;1.96;100.00;99246.84;103791;1286;71055;-33
2024/01/24 05:14:56;;;;;;;7.50;2.40;;;;;;;1.96;100.00;99246.32;103768;1283;60271;-31
2024/01/24 05:17:22;;;;;;;9.00;2.90;;;;;;;2.01;100.00;99237.21;103783;1286;59691;-32
2024/01/24 05:19:49;;;;;;;13.10;3.70;;;;;;;2.01;100.00;99229.56;103809;1282;60371;-33
2024/01/24 05:22:15;;;;;;;12.30;3.10;;;;;;;2.04;100.00;99226.86;103812;1286;60516;-31
2024/01/24 05:24:45;;;;;;;15.70;3.30;;;;;;;2.03;100.00;99226.77;103773;1286;59777;-32
2024/01/24 05:27:11;;;;;;;16.00;3.30;;;;;;;2.08;100.00;99222.20;103774;1285;70549;-32
2024/01/24 05:29:37;;;;;;;16.60;3.20;;;;;;;2.09;100.00;99211.89;103843;1282;59661;-31
2024/01/24 05:32:03;;;;;;;12.50;2.80;;;;;;;2.12;100.00;99214.77;103756;1287;59708;-33
2024/01/24 05:34:28;;;;;;;;;;;;;;;2.13;100.00;99199.09;103770;1284;59670;-31
2024/01/24 05:36:54;;;;;;;7.20;2.50;;;;;;;2.12;100.00;99186.67;103847;1298;59781;-34
2024/01/24 05:39:20;;;;;;;8.70;2.50;;;;;;;2.14;100.00;99173.95;103814;1286;59730;-33
2024/01/24 05:41:45;;;;;;;9.40;2.70;;;;;;;2.18;100.00;99163.15;103876;1294;59714;-33
2024/01/24 05:44:11;;;;;;;6.50;2.40;;;;;;;2.19;100.00;99173.30;103777;1297;59757;-32
2024/01/24 05:46:37;;;;;;;10.20;2.90;;;;;;;2.20;100.00;99169.12;103782;1294;59689;-33
2024/01/24 05:49:02;;;;;;;10.20;3.10;;;;;;;2.22;100.00;99160.48;103780;1284;59638;-36
2024/01/24 05:51:28;;;;;;;12.40;2.80;;;;;;;2.25;100.00;99168.48;103831;1287;59781;-31
2024/01/24 05:53:53;;;;;;;7.40;2.40;;;;;;;2.25;100.00;99164.77;103736;1286;60502;-33
2024/01/24 05:56:20;;;;;;;9.00;3.10;;;;;;;2.21;100.00;99159.98;103755;1286;59769;-34
2024/01/24 05:58:45;;;;;;;16.60;3.00;;;;;;;2.23;100.00;99142.00;103781;1298;59781;-32
2024/01/24 06:01:11;;;;;;;8.00;2.40;;;;;;;2.22;100.00;99134.08;103757;1286;60636;-32
2024/01/24 06:03:36;;;;;;;21.50;3.60;;;;;;;2.25;100.00;99134.34;103774;1287;60892;-33
2024/01/24 06:06:02;;;;;;;9.70;2.40;;;;;;;2.26;100.00;99135.83;103814;1294;59771;-33
2024/01/24 06:08:31;;;;;;;9.80;2.90;;;;;;;2.29;100.00;99136.98;103851;1286;67037;-35
2024/01/24 06:10:57;;;;;;;10.50;2.90;;;;;;;2.27;100.00;99134.84;103857;1285;70208;-32
2024/01/24 06:13:23;;;;;;;17.00;4.00;;;;;;;2.33;100.00;99137.98;103762;1286;59779;-35
2024/01/24 06:15:50;;;;;;;12.60;5.10;;;;;;;2.35;100.00;99139.70;103774;1287;59745;-34
2024/01/24 06:18:15;;;;;;;11.30;3.20;;;;;;;2.36;100.00;99130.14;103801;1286;59679;-33
2024/01/24 06:20:41;;;;;;;20.30;4.40;;;;;;;2.40;100.00;99124.30;103798;1294;59887;-35
2024/01/24 06:23:06;;;;;;;11.10;3.30;;;;;;;2.38;100.00;99109.27;103751;1287;59728;-34
2024/01/24 06:25:32;;;;;;;7.50;2.90;;;;;;;2.34;100.00;99109.84;103651;1285;60634;-32
2024/01/24 06:27:58;;;;;;;13.90;3.70;;;;;;;2.41;100.00;99092.55;103769;1284;59807;-32
2024/01/24 06:30:24;;;;;;;13.60;3.80;;;;;;;2.40;100.00;99094.05;103808;1287;59733;-32
2024/01/24 06:32:51;;;;;;;8.60;3.10;;;;;;;2.45;100.00;99090.95;103744;1298;60623;-32
2024/01/24 06:35:17;;;;;;;9.80;3.00;;;;;;;2.44;100.00;99086.61;103862;1286;67932;-34
2024/01/24 06:37:42;;;;;;;10.90;3.40;;;;;;;2.42;100.00;99084.00;103866;1286;61043;-32
2024/01/24 06:40:09;;;;;;;8.80;3.20;;;;;;;2.42;100.00;99097.54;103855;1294;60584;-34
2024/01/24 06:42:37;;;;;;;11.90;3.60;;;;;;;2.53;100.00;99096.13;103796;1286;60504;-33
2024/01/24 06:45:03;;;;;;;14.40;3.80;;;;;;;2.52;100.00;99085.56;103779;1282;60357;-33
2024/01/24 06:47:28;;;;;;;;;;;;;;;2.56;100.00;99074.98;103833;1286;60454;-32
2024/01/24 06:49:54;;;;;;;7.60;3.10;;;;;;;2.59;100.00;99062.98;103749;1298;60572;-33
2024/01/24 06:52:20;;;;;;;8.00;3.10;;;;;;;2.62;100.00;99066.59;103741;1288;60451;-33
2024/01/24 06:54:45;;;;;;;9.00;3.20;;;;;;;2.57;100.00;99058.59;103787;1294;60577;-33
2024/01/24 06:57:11;;;;;;;15.00;4.20;;;;;;;2.61;100.00;99048.09;103824;1304;60555;-32
2024/01/24 06:59:36;;;;;;;8.50;3.00;;;;;;;2.67;100.00;99040.84;103776;1282;60574;-32
2024/01/24 07:02:03;;;;;;;10.10;3.80;;;;;;;2.70;100.00;99038.36;103668;1287;60522;-33
2024/01/24 07:04:29;;;;;;;14.70;3.80;;;;;;;2.71;100.00;99035.59;103780;1286;70212;-33
2024/01/24 07:06:55;;;;;;;9.70;3.60;;;;;;;2.69;100.00;99025.37;103783;1282;60355;-33
2024/01/24 07:09:20;;;;;;;9.70;2.70;;;;;;;2.72;100.00;99021.38;103692;1284;60649;-34
2024/01/24 07:11:46;;;;;;;9.70;3.80;;;;;;;2.77;100.00;99017.17;103778;1298;60749;-34
2024/01/24 07:14:12;;;;;;;10.90;2.90;;;;;;;2.77;100.00;98995.92;103812;1298;60949;-35
2024/01/24 07:16:38;;;;;;;8.60;3.90;;;;;;;2.74;100.00;98999.26;103882;1288;60531;-33
2024/01/24 07:19:04;;;;;;;6.30;2.90;;;;;;;2.76;100.00;98980.64;103733;1288;60538;-33
2024/01/24 07:21:30;;;;;;;5.00;2.60;;;;;;;2.82;100.00;98992.40;103792;1294;60579;-32
2024/01/24 07:23:55;;;;;;;8.70;3.60;;;;;;;2.82;100.00;98990.65;103776;1286;60548;-31
2024/01/24 07:26:21;;;;;;;7.60;3.40;;;;;;;2.86;100.00;98980.34;103879;1294;60541;-32
2024/01/24 07:28:48;;;;;;;10.00;4.50;;;;;;;2.87;100.00;98981.36;103830;1282;67884;-34
2024/01/24 07:31:14;;;;;;;7.80;3.60;;;;;;;2.90;100.00;98978.02;103477;1288;72083;-32
2024/01/24 07:33:41;;;;;;;5.90;3.10;;;;;;;2.90;100.00;98967.05;103822;1282;61019;-31
2024/01/24 07:36:06;;;;;;;8.50;3.60;;;;;;;2.96;100.00;98967.48;103851;1283;60598;-32
2024/01/24 07:38:32;;;;;;;5.90;2.70;;;;;;;3.01;100.00;98984.28;103777;1286;61672;-32
2024/01/24 07:40:58;;;;;;;7.00;3.30;;;;;;;2.99;100.00;98965.73;103760;1295;61697;-33
2024/01/24 07:43:23;;;;;;;9.20;3.70;;;;;;;3.09;100.00;98934.52;103739;1287;61725;-33
2024/01/24 07:45:50;;;;;;;7.90;3.40;;;;;;;3.14;100.00;98953.59;103640;1297;61644;-31
2024/01/24 07:48:16;;;;;;;9.00;3.90;;;;;;;3.12;100.00;98952.73;103819;1287;62221;-31
2024/01/24 07:50:42;;;;;;;6.90;3.80;;;;;;;3.13;100.00;98962.19;103834;1286;61593;-30
2024/01/24 07:53:08;;;;;;;;;;;;;;;3.11;100.00;98961.98;103858;1287;61649;-32
2024/01/24 07:55:34;;;;;;;9.00;4.20;;;;;;;3.07;100.00;98945.31;103806;1288;61706;-33
2024/01/24 07:58:00;;;;;;;;;;;;;;;3.17;100.00;98935.54;103765;1285;61685;-30
2024/01/24 08:00:26;;;;;;;10.30;5.10;;;;;;;3.17;100.00;98944.36;103740;1297;61992;-32
2024/01/24 08:02:51;;;;;;;14.90;5.50;;;;;;;3.18;100.00;98934.24;103728;1282;61631;-32
2024/01/24 08:05:18;;;;;;;9.40;5.20;;;;;;;3.24;100.00;98936.08;103787;1287;61714;-33
2024/01/24 08:07:44;;;;;;;11.40;5.60;;;;;;;3.25;100.00;98928.39;103815;1286;61601;-32
2024/01/24 08:10:13;;;;;;;11.10;5.20;;;;;;;3.28;100.00;98911.71;103793;1301;62041;-32
2024/01/24 08:12:39;;;;;;;11.40;4.50;;;;;;;3.34;100.00;98914.52;103781;1286;70520;-32
2024/01/24 08:15:05;;;;;;;;;;;;;;;3.39;100.00;98911.55;103844;1286;62159;-32
2024/01/24 08:17:31;;;;;;;12.40;3.70;;;;;;;3.44;100.00;98907.73;103693;1287;62190;-32
2024/01/24 08:19:58;;;;;;;8.60;3.90;;;;;;;3.42;100.00;98909.20;103828;1286;61702;-33
2024/01/24 08:22:26;;;;;;;11.00;3.90;;;;;;;3.43;100.00;98903.92;103797;1285;61708;-34
2024/01/24 08:24:52;;;;;;;13.40;4.70;;;;;;;3.51;100.00;98903.27;103840;1282;67998;-33
2024/01/24 08:27:17;;;;;;;10.40;3.40;;;;;;;3.53;100.00;98906.43;103683;1288;61663;-32
2024/01/24 08:29:43;;;;;;;8.20;3.50;;;;;;;3.59;100.00;98903.65;103722;1287;61729;-34
2024/01/24 08:32:09;;;;;;;9.40;4.40;;;;;;;3.60;100.00;98898.05;103744;1298;61804;-34
2024/01/24 08:34:35;;;;;;;13.80;3.70;;;;;;;3.67;100.00;98894.99;103731;1287;61764;-34
2024/01/24 08:37:00;;;;;;;9.90;3.60;;;;;;;3.75;100.00;98891.35;103816;1298;61635;-32
2024/01/24 08:39:26;;;;;;;9.40;3.60;;;;;;;3.79;100.00;98890.29;103808;1286;62032;-35
2024/01/24 08:41:52;;;;;;;11.10;3.90;;;;;;;3.73;100.00;98882.48;103836;1298;61700;-32
2024/01/24 08:44:18;;;;;;;14.00;4.20;;;;;;;3.78;100.00;98876.90;103672;1285;61614;-32
2024/01/24 08:46:44;;;;;;;10.30;4.00;;;;;;;3.78;100.00;98877.77;103763;1286;61699;-33
2024/01/24 08:49:12;;;;;;;14.00;4.10;;;;;;;3.82;100.00;98881.39;103889;1294;61619;-35
2024/01/24 08:51:38;;;;;;;10.10;4.10;;;;;;;3.92;100.00;98879.03;103778;1284;67988;-32
2024/01/24 08:54:04;;;;;;;9.60;3.80;;;;;;;3.93;100.00;98883.38;103754;1286;72088;-33
2024/01/24 08:56:30;;;;;;;8.00;3.90;;;;;;;3.95;100.00;98879.02;103697;1287;61695;-33
2024/01/24 08:58:55;;;;;;;12.60;4.20;;;;;;;-22.47;79.80;79095.48;103132;1282;1002503;-34
2024/01/24 09:01:21;;;;;;;5.20;2.90;;;;;;;-128.00;-1.00;-1.00;100178;1282;1003032;-34
2024/01/24 09:03:50;;;;;;;12.20;4.40;;;;;;;-128.00;-1.00;-1.00;100288;1282;1002706;-32
2024/01/24 09:06:16;;;;;;;13.70;5.10;;;;;;;-128.00;-1.00;-1.00;100256;1282;1055857;-33
2024/01/24 09:08:44;;;;;;;9.80;4.50;;;;;;;-128.00;-1.00;-1.00;100230;1286;1003229;-31
2024/01/24 09:11:10;;;;;;;13.10;4.90;;;;;;;-128.00;-1.00;-1.00;100176;1282;1003347;-32
2024/01/24 09:13:35;;;;;;;10.00;4.10;;;;;;;-128.00;-1.00;-1.00;100271;1282;1002948;-33
2024/01/24 09:16:01;;;;;;;11.00;5.10;;;;;;;-128.00;-1.00;-1.00;100236;1282;1002981;-31
2024/01/24 09:18:27;;;;;;;16.60;4.80;;;;;;;-128.00;-1.00;-1.00;100271;1282;1055765;-32
2024/01/24 09:20:53;;;;;;;9.70;4.70;;;;;;;-128.00;-1.00;-1.00;100057;1287;1002676;-33
2024/01/24 09:23:19;;;;;;;11.20;5.60;;;;;;;-128.00;-1.00;-1.00;100326;1282;1004257;-32
2024/01/24 09:25:45;;;;;;;10.60;5.10;;;;;;;-128.00;-1.00;-1.00;100251;1282;1003971;-31
2024/01/24 09:28:11;;;;;;;10.70;5.30;;;;;;;-128.00;-1.00;-1.00;100407;1282;1003625;-34
2024/01/24 09:30:36;;;;;;;11.00;4.40;;;;;;;-128.00;-1.00;-1.00;100229;1283;1055608;-34
2024/01/24 09:33:03;;;;;;;8.50;4.70;;;;;;;-128.00;-1.00;-1.00;100166;1286;1005366;-34
2024/01/24 09:35:29;;;;;;;8.10;4.10;;;;;;;-128.00;-1.00;-1.00;100236;1282;1004369;-33
2024/01/24 09:37:55;;;;;;;7.40;3.70;;;;;;;-128.00;-1.00;-1.00;100196;1282;1002595;-33
2024/01/24 09:40:21;;;;;;;10.60;4.20;;;;;;;-128.00;-1.00;-1.00;100259;1282;1003085;-34
2024/01/24 09:42:47;;;;;;;9.30;4.50;;;;;;;-128.00;-1.00;-1.00;100227;1282;1055807;-33
2024/01/24 09:45:14;;;;;;;5.50;3.40;;;;;;;-128.00;-1.00;-1.00;100307;1283;1003701;-34
2024/01/24 09:47:41;;;;;;;8.80;4.60;;;;;;;-128.00;-1.00;-1.00;100266;1282;1003295;-32
2024/01/24 09:50:07;;;;;;;9.40;4.40;;;;;;;-128.00;-1.00;-1.00;100251;1282;1004358;-32
2024/01/24 09:52:33;;;;;;;7.30;3.90;;;;;;;-128.00;-1.00;-1.00;100076;1282;1004891;-32
2024/01/24 09:55:00;;;;;;;8.40;4.70;;;;;;;-128.00;-1.00;-1.00;100131;1282;1002721;-33
2024/01/24 09:57:26;;;;;;;10.00;5.30;;;;;;;-128.00;-1.00;-1.00;100217;1282;1003423;-32
2024/01/24 09:59:53;;;;;;;9.50;4.40;;;;;;;-128.00;-1.00;-1.00;100273;1282;1005430;-33
2024/01/24 10:02:20;;;;;;;9.30;4.90;;;;;;;-128.00;-1.00;-1.00;100239;1282;1003395;-33
2024/01/24 10:04:45;;;;;;;9.60;3.50;;;;;;;-128.00;-1.00;-1.00;100119;1282;1003537;-31
2024/01/24 10:07:11;;;;;;;7.20;3.50;;;;;;;-128.00;-1.00;-1.00;100246;1282;1004078;-32
2024/01/24 10:09:37;;;;;;;6.40;3.40;;;;;;;-128.00;-1.00;-1.00;100276;1282;1004359;-32
2024/01/24 10:12:04;;;;;;;10.00;3.10;;;;;;;-128.00;-1.00;-1.00;100247;1282;1059348;-36
2024/01/24 10:14:30;;;;;;;6.60;2.40;;;;;;;-128.00;-1.00;-1.00;100081;1282;1003730;-31
2024/01/24 10:16:56;;;;;;;;;;;;;;;-128.00;-1.00;-1.00;100253;1282;1004469;-33
2024/01/24 10:19:24;;;;;;;5.10;2.30;;;;;;;-128.00;-1.00;-1.00;100270;1282;1003153;-32
2024/01/24 10:21:50;;;;;;;5.00;2.40;;;;;;;-128.00;-1.00;-1.00;100266;1282;1002586;-31
2024/01/24 10:24:16;;;;;;;6.30;2.00;;;;;;;-128.00;-1.00;-1.00;100234;1282;1002714;-32
2024/01/24 10:26:44;;;;;;;3.80;2.00;;;;;;;-128.00;-1.00;-1.00;100149;1286;1002815;-31
2024/01/24 10:29:13;;;;;;;11.30;2.00;;;;;;;-128.00;-1.00;-1.00;100280;1287;1003006;-33
2024/01/24 10:31:38;;;;;;;6.60;1.50;;;;;;;-128.00;-1.00;-1.00;100252;1283;1038514;-33
2024/01/24 10:34:05;;;;;;;3.60;1.90;;;;;;;-128.00;-1.00;-1.00;100244;1282;1003923;-31
2024/01/24 10:36:32;;;;;;;4.20;1.40;;;;;;;-128.00;-1.00;-1.00;100210;1282;1004081;-31
2024/01/24 10:38:59;;;;;;;3.10;1.50;;;;;;;-128.00;-1.00;-1.00;100260;1282;1002992;-34
2024/01/24 10:41:28;;;;;;;6.40;1.60;;;;;;;-128.00;-1.00;-1.00;100170;1287;1002835;-33
2024/01/24 10:43:56;;;;;;;2.00;0.80;;;;;;;-128.00;-1.00;-1.00;100229;1282;1012582;-33
2024/01/24 10:46:22;;;;;;;3.50;1.10;;;;;;;-128.00;-1.00;-1.00;100262;1282;1003576;-33
2024/01/24 10:48:49;;;;;;;2.40;0.70;;;;;;;-128.00;-1.00;-1.00;100090;1282;1003993;-31
2024/01/24 10:51:14;;;;;;;2.30;0.80;;;;;;;-128.00;-1.00;-1.00;100136;1282;1003481;-33
2024/01/24 10:53:40;;;;;;;1.80;0.80;;;;;;;-128.00;-1.00;-1.00;100249;1282;1003408;-34
2024/01/24 10:56:06;;;;;;;1.00;0.60;;;;;;;-128.00;-1.00;-1.00;100190;1282;1012468;-31
2024/01/24 10:58:31;;;;;;;2.00;1.10;;;;;;;-128.00;-1.00;-1.00;100231;1282;1003611;-36
2024/01/24 11:00:57;;;;;;;2.90;0.90;;;;;;;-128.00;-1.00;-1.00;100259;1282;1004692;-33
2024/01/24 11:03:23;;;;;;;1.70;0.70;;;;;;;-128.00;-1.00;-1.00;100318;1282;1004432;-35
2024/01/24 11:05:50;;;;;;;1.70;1.00;;;;;;;-128.00;-1.00;-1.00;100311;1282;1002818;-33
2024/01/24 11:08:24;;;;;;;2.10;1.00;;;;;;;-128.00;-1.00;-1.00;100046;1282;1003464;-31
2024/01/24 11:10:50;;;;;;;1.80;1.00;;;;;;;-128.00;-1.00;-1.00;100192;1282;1039288;-34
2024/01/24 11:13:17;;;;;;;1.60;0.80;;;;;;;-128.00;-1.00;-1.00;100220;1282;1004013;-33
2024/01/24 11:15:45;;;;;;;3.60;0.90;;;;;;;-128.00;-1.00;-1.00;100149;1282;1003661;-32
2024/01/24 11:18:33;;;;;;;1.90;0.70;;;;;;;-128.00;-1.00;-1.00;100279;1282;1003542;-33
2024/01/24 11:20:59;;;;;;;2.90;0.90;;;;;;;-128.00;-1.00;-1.00;100202;1282;1058208;-32
2024/01/24 11:23:40;;;;;;;1.30;0.70;;;;;;;-128.00;-1.00;-1.00;100260;1282;1002803;-34
2024/01/24 11:26:10;;;;;;;1.50;0.80;;;;;;;-128.00;-1.00;-1.00;100224;1286;1039179;-32
2024/01/24 11:28:36;;;;;;;1.60;0.50;;;;;;;-128.00;-1.00;-1.00;100205;1282;1046325;-31
2024/01/24 11:31:03;;;;;;;2.70;0.40;;;;;;;-128.00;-1.00;-1.00;100274;1282;1005085;-31
2024/01/24 11:33:29;;;;;;;3.30;1.40;;;;;;;-128.00;-1.00;-1.00;100249;1282;1004929;-31
2024/01/24 11:35:54;;;;;;;17.50;6.10;;;;;;;-128.00;-1.00;-1.00;100069;1287;1004049;-31
2024/01/24 11:38:36;;;;;;;5.80;3.30;;;;;;;-128.00;-1.00;-1.00;100241;1282;1003386;-32
2024/01/24 11:41:22;;;;;;;5.40;2.60;;;;;;;-128.00;-1.00;-1.00;100236;1282;1045503;-32
2024/01/24 11:43:48;;;;;;;3.30;1.70;;;;;;;-128.00;-1.00;-1.00;100292;1282;1060017;-35
2024/01/24 11:46:13;;;;;;;2.60;1.40;;;;;;;-128.00;-1.00;-1.00;100218;1282;1003778;-34
2024/01/24 11:48:39;;;;;;;5.00;1.60;;;;;;;-128.00;-1.00;-1.00;100320;1282;1005504;-34
2024/01/24 11:51:10;;;;;;;6.70;3.30;;;;;;;-128.00;-1.00;-1.00;100087;1282;1004579;-35
2024/01/24 11:53:35;;;;;;;5.90;2.80;;;;;;;-128.00;-1.00;-1.00;100241;1282;1045867;-35
2024/01/24 11:56:02;;;;;;;6.00;2.40;;;;;;;-128.00;-1.00;-1.00;100245;1282;1003016;-35